Details From EDNY - Friedrichshafen
To EDJA - MEMMINGEN ALLGAU
Flight Number -
Tags generated
Created
Modified
Stats Distance 35 nm / 65 km
Max Altitude 2,600 ft / 792 m
Waypoints 3
Social Downloads 0
Likes 0
Share

Download

Looking for another format? Having issues loading an existing format? Contact us
Advertisement - Login to hide

Notes

Basic altitude profile: - Ascent Rate: 2500ft/min - Ascent Speed: 250kts - Cruise Altitude: 35000ft - Cruise Speed: 420kts - Descent Rate: 1500ft/min - Descent Speed: 250kts Options: - Use NATs: yes - Use PACOTS: yes - Use low airways: yes - Use high airways: yes

Route

EDNY RAVED EDJA

ID Type Via Altitude (ft/m) Position (lat/lon) Dist (leg/tot) Name
O EDNY APT - 0 / 0 47.67089 / 9.50818 - / 0 nm Friedrichshafen
RAVED FIX - 2,600 / 792 47.72917 / 9.66944 7 / 7 nm
O EDJA APT - 0 / 0 47.98876 / 10.23950 27 / 35 nm MEMMINGEN ALLGAU

Altitude Profile

Advertisement - Login to hide

EDNY

Details ICAO EDNY (FDH)
Name Friedrichshafen
Region Germany - Civil
Timezone Europe/Berlin (UTC+2.0)
Stats Elevation 1,368 ft / 417 m (AMSL)
Location 47.671100° 9.508820°
Runways 2
Magnetic Variation 3.128° E

METAR

EDNY 282250Z AUTO 03005KT 9999 FEW094/// 09/04 Q1014

Decode

TAF

TAF EDNY 281700Z 2818/2918 02007KT 9999 FEW035 PROB30 TEMPO 2912/2916 TSRA BKN025CB

Decode

Departure Runways

ID Width Length Bearing (true/mag) Surface Threshold Overrun Markings Lighting
06 148 ft / 45 m 7,737 ft / 2,358 m 60.06° / 56.93° ASPHALT 879 ft / 268 m 0 ft / 0 m PREC-APP CENTERLINE EDGE THRESHOLD ALSF-I REIL-OMNI
06L 92 ft / 28 m 3,899 ft / 1,188 m 60.13° / 57.00° GRASS 0 ft / 0 m 0 ft / 0 m NONE
24 148 ft / 45 m 7,737 ft / 2,358 m 240.08° / 236.95° ASPHALT 666 ft / 203 m 89 ft / 27 m PREC-APP CENTERLINE EDGE THRESHOLD ALSF-II REIL-OMNI
24R 92 ft / 28 m 3,899 ft / 1,188 m 240.14° / 237.01° GRASS 0 ft / 0 m 0 ft / 0 m NONE

EDJA

Details ICAO EDJA (FMM)
Name Memmingen Allgau Airport
Region Germany - Civil
Timezone Europe/Berlin (UTC+2.0)
Stats Elevation 2,077 ft / 633 m (AMSL)
Location 47.988800° 10.239500°
Runways 1
Magnetic Variation 3.315° E

METAR

EDJA 282250Z AUTO 01002KT 9999 // NCD 05/03 Q1015

Decode

TAF

Not found

Destination Runways

ID Width Length Bearing (true/mag) Surface Threshold Overrun Markings Lighting
06 147 ft / 45 m 9,657 ft / 2,943 m 59.31° / 56.00° ASPHALT 899 ft / 274 m 98 ft / 30 m PREC-APP CENTERLINE EDGE THRESHOLD MALS REIL-UNI
24 147 ft / 45 m 9,657 ft / 2,943 m 239.34° / 236.02° ASPHALT 899 ft / 274 m 52 ft / 16 m PREC-APP CENTERLINE EDGE THRESHOLD MALS REIL-UNI

Approach Navaids

Runway Type Ident Frequency Range Bearing (true/mag) Slope Elevation
24 DME IAMW 110.10 MHz 25 nm / 46 km - - 2,064 ft / 629 m (AMSL)
24 LOC-ILS IAMW 110.10 MHz 18 nm / 33 km 239.33° / 236.01 ° - 2,077 ft / 633 m (AMSL)
24 GS IAMW 110.10 MHz 10 nm / 19 km 239.33° / 236.01 ° 3.00° 2,077 ft / 633 m (AMSL)

Popular Alternatives